sensor_id;sensor_type;location;lat;lon;timestamp;temperature;humidity
15844;DHT22;50807;52.436;13.346;2023-07-08T00:00:13;23.60;54.20
15844;DHT22;50807;52.436;13.346;2023-07-08T00:00:46;23.60;54.30
15844;DHT22;50807;52.436;13.346;2023-07-08T00:01:20;23.60;54.30
15844;DHT22;50807;52.436;13.346;2023-07-08T00:01:52;23.60;54.50
15844;DHT22;50807;52.436;13.346;2023-07-08T00:02:22;23.60;54.50
15844;DHT22;50807;52.436;13.346;2023-07-08T00:02:53;23.50;54.50
15844;DHT22;50807;52.436;13.346;2023-07-08T00:03:24;23.50;54.50
15844;DHT22;50807;52.436;13.346;2023-07-08T00:03:55;23.50;54.60
15844;DHT22;50807;52.436;13.346;2023-07-08T00:04:26;23.50;54.60
15844;DHT22;50807;52.436;13.346;2023-07-08T00:04:57;23.50;54.60
15844;DHT22;50807;52.436;13.346;2023-07-08T00:05:28;23.50;54.70
15844;DHT22;50807;52.436;13.346;2023-07-08T00:05:59;23.50;54.70
15844;DHT22;50807;52.436;13.346;2023-07-08T00:06:30;23.50;54.80
15844;DHT22;50807;52.436;13.346;2023-07-08T00:07:01;23.50;54.80
15844;DHT22;50807;52.436;13.346;2023-07-08T00:07:32;23.50;54.80
15844;DHT22;50807;52.436;13.346;2023-07-08T00:08:05;23.50;54.90
15844;DHT22;50807;52.436;13.346;2023-07-08T00:08:36;23.40;54.90
15844;DHT22;50807;52.436;13.346;2023-07-08T00:09:10;23.40;54.90
15844;DHT22;50807;52.436;13.346;2023-07-08T00:09:42;23.40;55.00
15844;DHT22;50807;52.436;13.346;2023-07-08T00:10:15;23.40;54.90
15844;DHT22;50807;52.436;13.346;2023-07-08T00:10:47;23.40;55.00
15844;DHT22;50807;52.436;13.346;2023-07-08T00:11:19;23.40;55.00
15844;DHT22;50807;52.436;13.346;2023-07-08T00:11:50;23.40;55.10
15844;DHT22;50807;52.436;13.346;2023-07-08T00:12:21;23.40;55.10
15844;DHT22;50807;52.436;13.346;2023-07-08T00:12:53;23.40;55.10
15844;DHT22;50807;52.436;13.346;2023-07-08T00:13:26;23.40;55.20
15844;DHT22;50807;52.436;13.346;2023-07-08T00:13:57;23.40;55.20
15844;DHT22;50807;52.436;13.346;2023-07-08T00:14:27;23.40;55.30
15844;DHT22;50807;52.436;13.346;2023-07-08T00:14:58;23.30;55.30
15844;DHT22;50807;52.436;13.346;2023-07-08T00:15:32;23.30;55.40
15844;DHT22;50807;52.436;13.346;2023-07-08T00:16:03;23.30;55.40
15844;DHT22;50807;52.436;13.346;2023-07-08T00:16:35;23.30;55.40
15844;DHT22;50807;52.436;13.346;2023-07-08T00:17:10;23.30;55.40
15844;DHT22;50807;52.436;13.346;2023-07-08T00:17:43;23.30;55.50
15844;DHT22;50807;52.436;13.346;2023-07-08T00:18:15;23.30;55.50
15844;DHT22;50807;52.436;13.346;2023-07-08T00:18:47;23.30;55.50
15844;DHT22;50807;52.436;13.346;2023-07-08T00:19:18;23.20;55.50
15844;DHT22;50807;52.436;13.346;2023-07-08T00:19:54;23.20;55.60
15844;DHT22;50807;52.436;13.346;2023-07-08T00:20:30;23.20;55.60
15844;DHT22;50807;52.436;13.346;2023-07-08T00:21:04;23.20;55.70
15844;DHT22;50807;52.436;13.346;2023-07-08T00:21:39;23.20;55.70
15844;DHT22;50807;52.436;13.346;2023-07-08T00:22:12;23.20;55.70
15844;DHT22;50807;52.436;13.346;2023-07-08T00:22:43;23.20;55.70
15844;DHT22;50807;52.436;13.346;2023-07-08T00:23:18;23.20;55.70
15844;DHT22;50807;52.436;13.346;2023-07-08T00:23:52;23.20;55.80
15844;DHT22;50807;52.436;13.346;2023-07-08T00:24:22;23.20;55.80
15844;DHT22;50807;52.436;13.346;2023-07-08T00:24:53;23.20;55.80
15844;DHT22;50807;52.436;13.346;2023-07-08T00:25:25;23.10;55.90
15844;DHT22;50807;52.436;13.346;2023-07-08T00:25:56;23.10;55.90
15844;DHT22;50807;52.436;13.346;2023-07-08T00:26:28;23.10;56.00
15844;DHT22;50807;52.436;13.346;2023-07-08T00:27:01;23.10;56.10
15844;DHT22;50807;52.436;13.346;2023-07-08T00:27:32;23.10;56.10
15844;DHT22;50807;52.436;13.346;2023-07-08T00:28:07;23.10;56.10
15844;DHT22;50807;52.436;13.346;2023-07-08T00:28:39;23.10;56.30
15844;DHT22;50807;52.436;13.346;2023-07-08T00:29:12;23.10;56.20
15844;DHT22;50807;52.436;13.346;2023-07-08T00:29:46;23.10;56.30
15844;DHT22;50807;52.436;13.346;2023-07-08T00:30:20;23.10;56.20
15844;DHT22;50807;52.436;13.346;2023-07-08T00:30:53;23.10;56.30
15844;DHT22;50807;52.436;13.346;2023-07-08T00:31:25;23.10;56.30
15844;DHT22;50807;52.436;13.346;2023-07-08T00:31:56;23.10;56.40
15844;DHT22;50807;52.436;13.346;2023-07-08T00:32:27;23.00;56.40
15844;DHT22;50807;52.436;13.346;2023-07-08T00:32:59;23.00;56.40
15844;DHT22;50807;52.436;13.346;2023-07-08T00:33:30;23.00;56.50
15844;DHT22;50807;52.436;13.346;2023-07-08T00:34:01;23.00;56.60
15844;DHT22;50807;52.436;13.346;2023-07-08T00:34:33;23.00;56.70
15844;DHT22;50807;52.436;13.346;2023-07-08T00:35:05;23.00;56.70
15844;DHT22;50807;52.436;13.346;2023-07-08T00:35:38;23.00;56.80
15844;DHT22;50807;52.436;13.346;2023-07-08T00:36:12;23.00;56.80
15844;DHT22;50807;52.436;13.346;2023-07-08T00:36:46;23.00;56.90
15844;DHT22;50807;52.436;13.346;2023-07-08T00:37:16;23.00;56.90
15844;DHT22;50807;52.436;13.346;2023-07-08T00:37:47;22.90;56.90
15844;DHT22;50807;52.436;13.346;2023-07-08T00:38:22;22.90;57.00
15844;DHT22;50807;52.436;13.346;2023-07-08T00:38:57;22.90;57.10
15844;DHT22;50807;52.436;13.346;2023-07-08T00:39:27;22.90;57.10
15844;DHT22;50807;52.436;13.346;2023-07-08T00:39:58;22.90;57.20
15844;DHT22;50807;52.436;13.346;2023-07-08T00:40:32;22.90;57.20
15844;DHT22;50807;52.436;13.346;2023-07-08T00:41:08;22.90;57.30
15844;DHT22;50807;52.436;13.346;2023-07-08T00:41:42;22.90;57.40
15844;DHT22;50807;52.436;13.346;2023-07-08T00:42:17;22.90;57.40
15844;DHT22;50807;52.436;13.346;2023-07-08T00:42:51;22.90;57.40
15844;DHT22;50807;52.436;13.346;2023-07-08T00:43:30;22.90;57.40
15844;DHT22;50807;52.436;13.346;2023-07-08T00:44:09;22.80;57.50
15844;DHT22;50807;52.436;13.346;2023-07-08T00:44:42;22.80;57.40
15844;DHT22;50807;52.436;13.346;2023-07-08T00:45:20;22.80;57.40
15844;DHT22;50807;52.436;13.346;2023-07-08T00:46:13;22.80;57.60
15844;DHT22;50807;52.436;13.346;2023-07-08T00:46:58;22.80;57.60
15844;DHT22;50807;52.436;13.346;2023-07-08T00:47:33;22.80;57.60
15844;DHT22;50807;52.436;13.346;2023-07-08T00:48:10;22.80;57.50
15844;DHT22;50807;52.436;13.346;2023-07-08T00:48:46;22.80;57.70
15844;DHT22;50807;52.436;13.346;2023-07-08T00:49:29;22.80;57.60
15844;DHT22;50807;52.436;13.346;2023-07-08T00:50:08;22.80;57.80
15844;DHT22;50807;52.436;13.346;2023-07-08T00:50:41;22.80;57.70
15844;DHT22;50807;52.436;13.346;2023-07-08T00:51:12;22.80;57.80
15844;DHT22;50807;52.436;13.346;2023-07-08T00:51:43;22.70;57.90
15844;DHT22;50807;52.436;13.346;2023-07-08T00:52:23;22.70;58.00
15844;DHT22;50807;52.436;13.346;2023-07-08T00:53:23;22.70;58.20
15844;DHT22;50807;52.436;13.346;2023-07-08T00:53:57;22.70;58.40
15844;DHT22;50807;52.436;13.346;2023-07-08T00:54:29;22.70;58.10
15844;DHT22;50807;52.436;13.346;2023-07-08T00:55:04;22.70;58.20
15844;DHT22;50807;52.436;13.346;2023-07-08T00:55:37;22.70;58.40
15844;DHT22;50807;52.436;13.346;2023-07-08T00:56:11;22.60;58.30
15844;DHT22;50807;52.436;13.346;2023-07-08T00:56:49;22.60;58.40
15844;DHT22;50807;52.436;13.346;2023-07-08T00:57:27;22.60;58.50
15844;DHT22;50807;52.436;13.346;2023-07-08T00:58:01;22.60;58.60
15844;DHT22;50807;52.436;13.346;2023-07-08T00:58:34;22.60;58.60
15844;DHT22;50807;52.436;13.346;2023-07-08T00:59:13;22.60;58.70
15844;DHT22;50807;52.436;13.346;2023-07-08T00:59:52;22.60;58.80
15844;DHT22;50807;52.436;13.346;2023-07-08T01:00:28;22.60;58.80
15844;DHT22;50807;52.436;13.346;2023-07-08T01:00:59;22.60;58.80
15844;DHT22;50807;52.436;13.346;2023-07-08T01:01:36;22.60;58.80
15844;DHT22;50807;52.436;13.346;2023-07-08T01:02:11;22.50;58.90
15844;DHT22;50807;52.436;13.346;2023-07-08T01:02:48;22.50;58.90
15844;DHT22;50807;52.436;13.346;2023-07-08T01:03:23;22.50;59.00
15844;DHT22;50807;52.436;13.346;2023-07-08T01:03:57;22.50;59.00
15844;DHT22;50807;52.436;13.346;2023-07-08T01:04:37;22.50;59.10
15844;DHT22;50807;52.436;13.346;2023-07-08T01:05:16;22.50;59.10
15844;DHT22;50807;52.436;13.346;2023-07-08T01:05:51;22.50;59.20
15844;DHT22;50807;52.436;13.346;2023-07-08T01:06:24;22.50;59.20
15844;DHT22;50807;52.436;13.346;2023-07-08T01:07:02;22.50;59.30
15844;DHT22;50807;52.436;13.346;2023-07-08T01:07:34;22.50;59.30
15844;DHT22;50807;52.436;13.346;2023-07-08T01:08:08;22.50;59.40
15844;DHT22;50807;52.436;13.346;2023-07-08T01:08:42;22.50;59.50
15844;DHT22;50807;52.436;13.346;2023-07-08T01:09:14;22.50;59.60
15844;DHT22;50807;52.436;13.346;2023-07-08T01:09:47;22.50;59.70
15844;DHT22;50807;52.436;13.346;2023-07-08T01:10:28;22.50;59.70
15844;DHT22;50807;52.436;13.346;2023-07-08T01:11:04;22.40;59.70
15844;DHT22;50807;52.436;13.346;2023-07-08T01:11:37;22.40;59.70
15844;DHT22;50807;52.436;13.346;2023-07-08T01:12:13;22.40;59.80
15844;DHT22;50807;52.436;13.346;2023-07-08T01:12:54;22.40;59.90
15844;DHT22;50807;52.436;13.346;2023-07-08T01:13:33;22.40;60.00
15844;DHT22;50807;52.436;13.346;2023-07-08T01:14:12;22.40;60.10
15844;DHT22;50807;52.436;13.346;2023-07-08T01:14:51;22.40;60.20
15844;DHT22;50807;52.436;13.346;2023-07-08T01:15:27;22.40;60.20
15844;DHT22;50807;52.436;13.346;2023-07-08T01:16:02;22.40;60.20
15844;DHT22;50807;52.436;13.346;2023-07-08T01:16:35;22.40;60.20
15844;DHT22;50807;52.436;13.346;2023-07-08T01:17:06;22.40;60.30
15844;DHT22;50807;52.436;13.346;2023-07-08T01:17:37;22.40;60.40
15844;DHT22;50807;52.436;13.346;2023-07-08T01:18:09;22.40;60.60
15844;DHT22;50807;52.436;13.346;2023-07-08T01:18:43;22.40;60.70
15844;DHT22;50807;52.436;13.346;2023-07-08T01:19:23;22.40;60.70
15844;DHT22;50807;52.436;13.346;2023-07-08T01:20:04;22.30;60.70
15844;DHT22;50807;52.436;13.346;2023-07-08T01:20:37;22.40;60.80
15844;DHT22;50807;52.436;13.346;2023-07-08T01:21:28;22.30;60.70
15844;DHT22;50807;52.436;13.346;2023-07-08T01:22:06;22.30;61.00
15844;DHT22;50807;52.436;13.346;2023-07-08T01:22:37;22.40;60.90
15844;DHT22;50807;52.436;13.346;2023-07-08T01:23:10;22.30;60.90
15844;DHT22;50807;52.436;13.346;2023-07-08T01:23:42;22.30;60.90
15844;DHT22;50807;52.436;13.346;2023-07-08T01:24:13;22.30;61.00
15844;DHT22;50807;52.436;13.346;2023-07-08T01:24:45;22.30;61.10
15844;DHT22;50807;52.436;13.346;2023-07-08T01:25:16;22.30;61.20
15844;DHT22;50807;52.436;13.346;2023-07-08T01:25:48;22.30;61.30
15844;DHT22;50807;52.436;13.346;2023-07-08T01:26:23;22.30;61.40
15844;DHT22;50807;52.436;13.346;2023-07-08T01:26:55;22.20;61.50
15844;DHT22;50807;52.436;13.346;2023-07-08T01:27:27;22.30;61.50
15844;DHT22;50807;52.436;13.346;2023-07-08T01:27:59;22.20;61.50
15844;DHT22;50807;52.436;13.346;2023-07-08T01:28:30;22.20;61.50
15844;DHT22;50807;52.436;13.346;2023-07-08T01:29:02;22.20;61.60
15844;DHT22;50807;52.436;13.346;2023-07-08T01:29:34;22.20;61.70
15844;DHT22;50807;52.436;13.346;2023-07-08T01:30:07;22.20;61.70
15844;DHT22;50807;52.436;13.346;2023-07-08T01:30:40;22.20;61.80
15844;DHT22;50807;52.436;13.346;2023-07-08T01:31:12;22.20;61.90
15844;DHT22;50807;52.436;13.346;2023-07-08T01:31:44;22.20;61.80
15844;DHT22;50807;52.436;13.346;2023-07-08T01:32:19;22.20;61.90
15844;DHT22;50807;52.436;13.346;2023-07-08T01:32:51;22.10;61.80
15844;DHT22;50807;52.436;13.346;2023-07-08T01:33:28;22.10;61.90
15844;DHT22;50807;52.436;13.346;2023-07-08T01:33:59;22.10;61.90
15844;DHT22;50807;52.436;13.346;2023-07-08T01:34:31;22.20;62.00
15844;DHT22;50807;52.436;13.346;2023-07-08T01:35:04;22.10;62.10
15844;DHT22;50807;52.436;13.346;2023-07-08T01:35:36;22.10;62.10
15844;DHT22;50807;52.436;13.346;2023-07-08T01:36:08;22.10;62.10
15844;DHT22;50807;52.436;13.346;2023-07-08T01:36:44;22.10;62.20
15844;DHT22;50807;52.436;13.346;2023-07-08T01:37:20;22.10;62.20
15844;DHT22;50807;52.436;13.346;2023-07-08T01:37:53;22.10;62.20
15844;DHT22;50807;52.436;13.346;2023-07-08T01:38:28;22.10;62.20
15844;DHT22;50807;52.436;13.346;2023-07-08T01:39:00;22.10;62.20
15844;DHT22;50807;52.436;13.346;2023-07-08T01:39:32;22.10;62.20
15844;DHT22;50807;52.436;13.346;2023-07-08T01:40:25;22.10;62.30
15844;DHT22;50807;52.436;13.346;2023-07-08T01:40:58;22.10;62.40
15844;DHT22;50807;52.436;13.346;2023-07-08T01:41:30;22.10;62.20
15844;DHT22;50807;52.436;13.346;2023-07-08T01:42:01;22.10;62.30
15844;DHT22;50807;52.436;13.346;2023-07-08T01:42:32;22.10;62.40
15844;DHT22;50807;52.436;13.346;2023-07-08T01:43:04;22.10;62.50
15844;DHT22;50807;52.436;13.346;2023-07-08T01:43:37;22.10;62.80
15844;DHT22;50807;52.436;13.346;2023-07-08T01:44:21;22.10;62.80
15844;DHT22;50807;52.436;13.346;2023-07-08T01:44:54;22.10;62.90
15844;DHT22;50807;52.436;13.346;2023-07-08T01:45:27;22.10;62.80
15844;DHT22;50807;52.436;13.346;2023-07-08T01:46:03;22.10;62.80
15844;DHT22;50807;52.436;13.346;2023-07-08T01:46:39;22.10;62.80
15844;DHT22;50807;52.436;13.346;2023-07-08T01:47:18;22.10;62.80
15844;DHT22;50807;52.436;13.346;2023-07-08T01:47:58;22.00;63.00
15844;DHT22;50807;52.436;13.346;2023-07-08T01:48:41;22.00;62.90
15844;DHT22;50807;52.436;13.346;2023-07-08T01:49:17;22.00;63.70
15844;DHT22;50807;52.436;13.346;2023-07-08T01:49:50;22.00;62.90
15844;DHT22;50807;52.436;13.346;2023-07-08T01:50:21;22.00;62.80
15844;DHT22;50807;52.436;13.346;2023-07-08T01:50:57;22.00;62.90
15844;DHT22;50807;52.436;13.346;2023-07-08T01:51:32;22.00;62.90
15844;DHT22;50807;52.436;13.346;2023-07-08T01:52:04;22.00;62.90
15844;DHT22;50807;52.436;13.346;2023-07-08T01:52:37;22.00;62.90
15844;DHT22;50807;52.436;13.346;2023-07-08T01:53:12;22.00;63.00
15844;DHT22;50807;52.436;13.346;2023-07-08T01:53:47;22.00;63.70
15844;DHT22;50807;52.436;13.346;2023-07-08T01:54:17;22.00;63.00
15844;DHT22;50807;52.436;13.346;2023-07-08T01:54:54;22.00;63.00
15844;DHT22;50807;52.436;13.346;2023-07-08T01:55:27;22.00;63.20
15844;DHT22;50807;52.436;13.346;2023-07-08T01:55:59;22.00;63.10
15844;DHT22;50807;52.436;13.346;2023-07-08T01:56:30;22.00;63.10
15844;DHT22;50807;52.436;13.346;2023-07-08T01:57:02;22.00;63.20
15844;DHT22;50807;52.436;13.346;2023-07-08T01:57:33;21.90;63.20
15844;DHT22;50807;52.436;13.346;2023-07-08T01:58:04;21.90;63.30
15844;DHT22;50807;52.436;13.346;2023-07-08T01:58:35;21.90;63.30
15844;DHT22;50807;52.436;13.346;2023-07-08T01:59:07;21.90;63.40
15844;DHT22;50807;52.436;13.346;2023-07-08T01:59:37;21.90;63.40
15844;DHT22;50807;52.436;13.346;2023-07-08T02:00:09;21.90;63.50
15844;DHT22;50807;52.436;13.346;2023-07-08T02:00:41;21.90;63.60
15844;DHT22;50807;52.436;13.346;2023-07-08T02:01:13;21.90;63.60
15844;DHT22;50807;52.436;13.346;2023-07-08T02:01:44;21.90;63.70
15844;DHT22;50807;52.436;13.346;2023-07-08T02:02:15;21.90;63.80
15844;DHT22;50807;52.436;13.346;2023-07-08T02:02:46;21.90;63.90
15844;DHT22;50807;52.436;13.346;2023-07-08T02:03:17;21.90;64.00
15844;DHT22;50807;52.436;13.346;2023-07-08T02:03:49;21.90;64.10
15844;DHT22;50807;52.436;13.346;2023-07-08T02:04:20;21.90;64.10
15844;DHT22;50807;52.436;13.346;2023-07-08T02:04:50;21.90;64.20
15844;DHT22;50807;52.436;13.346;2023-07-08T02:05:22;21.80;64.10
15844;DHT22;50807;52.436;13.346;2023-07-08T02:05:54;21.80;64.20
15844;DHT22;50807;52.436;13.346;2023-07-08T02:06:25;21.80;64.20
15844;DHT22;50807;52.436;13.346;2023-07-08T02:06:58;21.80;64.20
15844;DHT22;50807;52.436;13.346;2023-07-08T02:07:31;21.80;64.30
15844;DHT22;50807;52.436;13.346;2023-07-08T02:08:03;21.80;64.30
15844;DHT22;50807;52.436;13.346;2023-07-08T02:08:34;21.80;64.40
15844;DHT22;50807;52.436;13.346;2023-07-08T02:09:06;21.80;64.40
15844;DHT22;50807;52.436;13.346;2023-07-08T02:09:36;21.80;64.40
15844;DHT22;50807;52.436;13.346;2023-07-08T02:10:08;21.80;64.40
15844;DHT22;50807;52.436;13.346;2023-07-08T02:10:40;21.80;64.40
15844;DHT22;50807;52.436;13.346;2023-07-08T02:11:13;21.80;64.50
15844;DHT22;50807;52.436;13.346;2023-07-08T02:11:44;21.80;64.40
15844;DHT22;50807;52.436;13.346;2023-07-08T02:12:15;21.80;64.40
15844;DHT22;50807;52.436;13.346;2023-07-08T02:12:45;21.80;64.40
15844;DHT22;50807;52.436;13.346;2023-07-08T02:13:17;21.80;64.50
15844;DHT22;50807;52.436;13.346;2023-07-08T02:13:48;21.80;64.50
15844;DHT22;50807;52.436;13.346;2023-07-08T02:14:19;21.80;64.50
15844;DHT22;50807;52.436;13.346;2023-07-08T02:14:51;21.80;64.50
15844;DHT22;50807;52.436;13.346;2023-07-08T02:15:22;21.80;65.20
15844;DHT22;50807;52.436;13.346;2023-07-08T02:15:52;21.70;64.40
15844;DHT22;50807;52.436;13.346;2023-07-08T02:16:23;21.70;64.50
15844;DHT22;50807;52.436;13.346;2023-07-08T02:16:55;21.70;64.40
15844;DHT22;50807;52.436;13.346;2023-07-08T02:17:26;21.70;65.20
15844;DHT22;50807;52.436;13.346;2023-07-08T02:17:59;21.70;64.50
15844;DHT22;50807;52.436;13.346;2023-07-08T02:18:31;21.70;64.50
15844;DHT22;50807;52.436;13.346;2023-07-08T02:19:02;21.70;64.50
15844;DHT22;50807;52.436;13.346;2023-07-08T02:19:33;21.70;64.50
15844;DHT22;50807;52.436;13.346;2023-07-08T02:20:05;21.70;64.50
15844;DHT22;50807;52.436;13.346;2023-07-08T02:20:38;21.70;64.60
15844;DHT22;50807;52.436;13.346;2023-07-08T02:21:09;21.70;64.50
15844;DHT22;50807;52.436;13.346;2023-07-08T02:21:40;21.70;64.50
15844;DHT22;50807;52.436;13.346;2023-07-08T02:22:11;21.70;64.50
15844;DHT22;50807;52.436;13.346;2023-07-08T02:22:43;21.70;64.60
15844;DHT22;50807;52.436;13.346;2023-07-08T02:23:15;21.70;64.70
15844;DHT22;50807;52.436;13.346;2023-07-08T02:23:49;21.70;64.80
15844;DHT22;50807;52.436;13.346;2023-07-08T02:24:23;21.70;65.00
15844;DHT22;50807;52.436;13.346;2023-07-08T02:24:54;21.70;65.00
15844;DHT22;50807;52.436;13.346;2023-07-08T02:25:24;21.70;65.00
15844;DHT22;50807;52.436;13.346;2023-07-08T02:25:55;21.70;65.20
15844;DHT22;50807;52.436;13.346;2023-07-08T02:26:27;21.70;65.30
15844;DHT22;50807;52.436;13.346;2023-07-08T02:26:58;21.70;65.30
15844;DHT22;50807;52.436;13.346;2023-07-08T02:27:28;21.70;65.30
15844;DHT22;50807;52.436;13.346;2023-07-08T02:27:59;21.60;65.30
15844;DHT22;50807;52.436;13.346;2023-07-08T02:28:31;21.60;65.40
15844;DHT22;50807;52.436;13.346;2023-07-08T02:29:02;21.60;65.40
15844;DHT22;50807;52.436;13.346;2023-07-08T02:29:33;21.60;65.40
15844;DHT22;50807;52.436;13.346;2023-07-08T02:30:05;21.60;65.40
15844;DHT22;50807;52.436;13.346;2023-07-08T02:30:37;21.60;65.40
15844;DHT22;50807;52.436;13.346;2023-07-08T02:31:07;21.60;65.30
15844;DHT22;50807;52.436;13.346;2023-07-08T02:31:39;21.60;65.30
15844;DHT22;50807;52.436;13.346;2023-07-08T02:32:10;21.60;65.40
15844;DHT22;50807;52.436;13.346;2023-07-08T02:32:41;21.60;65.30
15844;DHT22;50807;52.436;13.346;2023-07-08T02:33:26;21.60;65.40
15844;DHT22;50807;52.436;13.346;2023-07-08T02:34:03;21.60;66.10
15844;DHT22;50807;52.436;13.346;2023-07-08T02:34:34;21.60;65.30
15844;DHT22;50807;52.436;13.346;2023-07-08T02:35:07;21.60;65.30
15844;DHT22;50807;52.436;13.346;2023-07-08T02:35:38;21.60;65.30
15844;DHT22;50807;52.436;13.346;2023-07-08T02:36:09;21.60;66.00
15844;DHT22;50807;52.436;13.346;2023-07-08T02:36:40;21.60;65.40
15844;DHT22;50807;52.436;13.346;2023-07-08T02:37:12;21.60;65.40
15844;DHT22;50807;52.436;13.346;2023-07-08T02:37:42;21.60;65.40
15844;DHT22;50807;52.436;13.346;2023-07-08T02:38:14;21.60;65.40
15844;DHT22;50807;52.436;13.346;2023-07-08T02:38:46;21.60;65.40
15844;DHT22;50807;52.436;13.346;2023-07-08T02:39:17;21.60;65.40
15844;DHT22;50807;52.436;13.346;2023-07-08T02:39:47;21.60;65.50
15844;DHT22;50807;52.436;13.346;2023-07-08T02:40:18;21.60;66.20
15844;DHT22;50807;52.436;13.346;2023-07-08T02:40:50;21.50;65.50
15844;DHT22;50807;52.436;13.346;2023-07-08T02:41:21;21.50;65.50
15844;DHT22;50807;52.436;13.346;2023-07-08T02:41:52;21.50;65.60
15844;DHT22;50807;52.436;13.346;2023-07-08T02:42:23;21.50;65.70
15844;DHT22;50807;52.436;13.346;2023-07-08T02:42:54;21.50;65.70
15844;DHT22;50807;52.436;13.346;2023-07-08T02:43:26;21.50;65.70
15844;DHT22;50807;52.436;13.346;2023-07-08T02:43:56;21.50;65.70
15844;DHT22;50807;52.436;13.346;2023-07-08T02:44:28;21.50;65.80
15844;DHT22;50807;52.436;13.346;2023-07-08T02:44:59;21.50;65.80
15844;DHT22;50807;52.436;13.346;2023-07-08T02:45:29;21.50;65.80
15844;DHT22;50807;52.436;13.346;2023-07-08T02:46:01;21.50;65.80
15844;DHT22;50807;52.436;13.346;2023-07-08T02:46:32;21.50;65.80
15844;DHT22;50807;52.436;13.346;2023-07-08T02:47:03;21.50;65.90
15844;DHT22;50807;52.436;13.346;2023-07-08T02:47:33;21.50;65.90
15844;DHT22;50807;52.436;13.346;2023-07-08T02:48:05;21.50;66.00
15844;DHT22;50807;52.436;13.346;2023-07-08T02:48:36;21.50;66.00
15844;DHT22;50807;52.436;13.346;2023-07-08T02:49:07;21.50;66.00
15844;DHT22;50807;52.436;13.346;2023-07-08T02:49:37;21.50;66.00
15844;DHT22;50807;52.436;13.346;2023-07-08T02:50:09;21.50;66.00
15844;DHT22;50807;52.436;13.346;2023-07-08T02:50:41;21.50;66.10
15844;DHT22;50807;52.436;13.346;2023-07-08T02:51:12;21.50;66.10
15844;DHT22;50807;52.436;13.346;2023-07-08T02:51:42;21.50;66.10
15844;DHT22;50807;52.436;13.346;2023-07-08T02:52:14;21.50;66.10
15844;DHT22;50807;52.436;13.346;2023-07-08T02:52:45;21.50;66.30
15844;DHT22;50807;52.436;13.346;2023-07-08T02:53:17;21.50;66.30
15844;DHT22;50807;52.436;13.346;2023-07-08T02:53:49;21.50;66.40
15844;DHT22;50807;52.436;13.346;2023-07-08T02:54:20;21.50;66.40
15844;DHT22;50807;52.436;13.346;2023-07-08T02:54:51;21.50;66.50
15844;DHT22;50807;52.436;13.346;2023-07-08T02:55:22;21.50;66.60
15844;DHT22;50807;52.436;13.346;2023-07-08T02:55:53;21.40;66.50
15844;DHT22;50807;52.436;13.346;2023-07-08T02:56:24;21.40;67.30
15844;DHT22;50807;52.436;13.346;2023-07-08T02:56:56;21.40;66.50
15844;DHT22;50807;52.436;13.346;2023-07-08T02:57:28;21.40;66.60
15844;DHT22;50807;52.436;13.346;2023-07-08T02:57:59;21.40;66.60
15844;DHT22;50807;52.436;13.346;2023-07-08T02:58:30;21.40;66.70
15844;DHT22;50807;52.436;13.346;2023-07-08T02:59:00;21.40;66.80
15844;DHT22;50807;52.436;13.346;2023-07-08T02:59:32;21.40;66.80
15844;DHT22;50807;52.436;13.346;2023-07-08T03:00:04;21.40;66.90
15844;DHT22;50807;52.436;13.346;2023-07-08T03:00:37;21.40;66.90
15844;DHT22;50807;52.436;13.346;2023-07-08T03:01:08;21.40;66.90
15844;DHT22;50807;52.436;13.346;2023-07-08T03:01:39;21.40;66.90
15844;DHT22;50807;52.436;13.346;2023-07-08T03:02:11;21.40;66.90
15844;DHT22;50807;52.436;13.346;2023-07-08T03:02:42;21.40;66.90
15844;DHT22;50807;52.436;13.346;2023-07-08T03:03:14;21.40;66.90
15844;DHT22;50807;52.436;13.346;2023-07-08T03:03:46;21.40;66.90
15844;DHT22;50807;52.436;13.346;2023-07-08T03:04:18;21.40;66.90
15844;DHT22;50807;52.436;13.346;2023-07-08T03:04:52;21.40;66.90
15844;DHT22;50807;52.436;13.346;2023-07-08T03:05:24;21.40;66.90
15844;DHT22;50807;52.436;13.346;2023-07-08T03:05:56;21.40;66.90
15844;DHT22;50807;52.436;13.346;2023-07-08T03:06:27;21.40;67.00
15844;DHT22;50807;52.436;13.346;2023-07-08T03:07:00;21.30;66.90
15844;DHT22;50807;52.436;13.346;2023-07-08T03:07:31;21.40;67.10
15844;DHT22;50807;52.436;13.346;2023-07-08T03:08:02;21.30;67.00
15844;DHT22;50807;52.436;13.346;2023-07-08T03:08:34;21.30;67.00
15844;DHT22;50807;52.436;13.346;2023-07-08T03:09:06;21.30;67.10
15844;DHT22;50807;52.436;13.346;2023-07-08T03:09:36;21.30;67.00
15844;DHT22;50807;52.436;13.346;2023-07-08T03:10:08;21.30;67.10
15844;DHT22;50807;52.436;13.346;2023-07-08T03:10:39;21.30;67.10
15844;DHT22;50807;52.436;13.346;2023-07-08T03:11:11;21.30;67.20
15844;DHT22;50807;52.436;13.346;2023-07-08T03:11:43;21.30;67.20
15844;DHT22;50807;52.436;13.346;2023-07-08T03:12:14;21.30;67.10
15844;DHT22;50807;52.436;13.346;2023-07-08T03:12:45;21.30;67.20
15844;DHT22;50807;52.436;13.346;2023-07-08T03:13:16;21.30;67.20
15844;DHT22;50807;52.436;13.346;2023-07-08T03:13:47;21.30;67.20
15844;DHT22;50807;52.436;13.346;2023-07-08T03:14:17;21.30;67.20
15844;DHT22;50807;52.436;13.346;2023-07-08T03:14:49;21.30;67.20
15844;DHT22;50807;52.436;13.346;2023-07-08T03:15:20;21.30;67.30
15844;DHT22;50807;52.436;13.346;2023-07-08T03:15:50;21.30;67.30
15844;DHT22;50807;52.436;13.346;2023-07-08T03:16:21;21.30;67.30
15844;DHT22;50807;52.436;13.346;2023-07-08T03:16:53;21.30;67.40
15844;DHT22;50807;52.436;13.346;2023-07-08T03:17:24;21.30;67.30
15844;DHT22;50807;52.436;13.346;2023-07-08T03:17:55;21.30;67.40
15844;DHT22;50807;52.436;13.346;2023-07-08T03:18:28;21.30;67.40
15844;DHT22;50807;52.436;13.346;2023-07-08T03:19:00;21.30;67.50
15844;DHT22;50807;52.436;13.346;2023-07-08T03:19:31;21.30;67.50
15844;DHT22;50807;52.436;13.346;2023-07-08T03:20:03;21.30;67.50
15844;DHT22;50807;52.436;13.346;2023-07-08T03:20:39;21.30;67.60
15844;DHT22;50807;52.436;13.346;2023-07-08T03:21:10;21.30;67.60
15844;DHT22;50807;52.436;13.346;2023-07-08T03:21:40;21.30;67.60
15844;DHT22;50807;52.436;13.346;2023-07-08T03:22:12;21.30;67.60
15844;DHT22;50807;52.436;13.346;2023-07-08T03:22:43;21.30;67.70
15844;DHT22;50807;52.436;13.346;2023-07-08T03:23:14;21.30;67.70
15844;DHT22;50807;52.436;13.346;2023-07-08T03:23:47;21.30;67.70
15844;DHT22;50807;52.436;13.346;2023-07-08T03:24:19;21.30;67.80
15844;DHT22;50807;52.436;13.346;2023-07-08T03:24:51;21.30;67.80